
Distance (Route):
Temperature : 0°C
Humidity : 0%
Pressure : 0hPa| Receiver | Frames | First received | Last received |
|---|---|---|---|
| RDZBGO | 122 | 2026-08-31 23:36:08 | 2026-09-01 00:23:32 |
| Receiver | Date | Latitude | Longitude | Direction | Speed | Altitude | Climb | Temperature | Humidity | Pressure | Voltage | Killtimer | Uptime | BKT | XDATA |
|---|---|---|---|---|---|---|---|---|---|---|---|---|---|---|---|
| RDZBGO | 2026-09-01 00:23:32 | 41.99286 | 9.50900 | 45° | 20km/h | 20447m | 2.9m/s | 0°C | 0% | 0hPa | 0V | 00:00:00 | 00:00:00 | 00:00:00 | |
| RDZBGO | 2026-09-01 00:22:55 | 41.99216 | 9.50863 | 122° | 11km/h | 20277m | 4.4m/s | 0°C | 0% | 0hPa | 0V | 00:00:00 | 00:00:00 | 00:00:00 | |
| RDZBGO | 2026-09-01 00:22:16 | 41.99083 | 9.50691 | 292° | 13km/h | 20087m | 9.5m/s | 0°C | 0% | 0hPa | 0V | 00:00:00 | 00:00:00 | 00:00:00 | |
| RDZBGO | 2026-09-01 00:21:52 | 41.98951 | 9.50630 | 76° | 27km/h | 19971m | 0.5m/s | 0°C | 0% | 0hPa | 0V | 00:00:00 | 00:00:00 | 00:00:00 | |
| RDZBGO | 2026-09-01 00:21:27 | 41.98868 | 9.50610 | 134° | 24km/h | 19855m | 2.3m/s | 0°C | 0% | 0hPa | 0V | 00:00:00 | 00:00:00 | 00:00:00 | |
| RDZBGO | 2026-09-01 00:20:30 | 41.98577 | 9.50512 | 292° | 37km/h | 19590m | 0.8m/s | 0°C | 0% | 0hPa | 0V | 00:00:00 | 00:00:00 | 00:00:00 | |
| RDZBGO | 2026-09-01 00:19:38 | 41.98463 | 9.50583 | 81° | 20km/h | 19339m | 1.3m/s | 0°C | 0% | 0hPa | 0V | 00:00:00 | 00:00:00 | 00:00:00 | |
| RDZBGO | 2026-09-01 00:19:17 | 41.98487 | 9.50492 | 141° | 47km/h | 19231m | 7.5m/s | 0°C | 0% | 0hPa | 0V | 00:00:00 | 00:00:00 | 00:00:00 | |
| RDZBGO | 2026-09-01 00:18:55 | 41.98486 | 9.50288 | 107° | 58km/h | 19127m | 3.6m/s | 0°C | 0% | 0hPa | 0V | 00:00:00 | 00:00:00 | 00:00:00 | |
| RDZBGO | 2026-09-01 00:18:04 | 41.98329 | 9.49797 | 96° | 55km/h | 18890m | 1.6m/s | 0°C | 0% | 0hPa | 0V | 00:00:00 | 00:00:00 | 00:00:00 | |
| RDZBGO | 2026-09-01 00:17:40 | 41.98211 | 9.49617 | 38° | 40km/h | 18786m | 2.1m/s | 0°C | 0% | 0hPa | 0V | 00:00:00 | 00:00:00 | 00:00:00 | |
| RDZBGO | 2026-09-01 00:17:19 | 41.98123 | 9.49466 | 135° | 20km/h | 18689m | 3.8m/s | 0°C | 0% | 0hPa | 0V | 00:00:00 | 00:00:00 | 00:00:00 | |
| RDZBGO | 2026-09-01 00:16:56 | 41.98003 | 9.49353 | 23° | 57km/h | 18584m | 0.1m/s | 0°C | 0% | 0hPa | 0V | 00:00:00 | 00:00:00 | 00:00:00 | |
| RDZBGO | 2026-09-01 00:16:32 | 41.97874 | 9.49329 | 341° | 24km/h | 18483m | 2.3m/s | 0°C | 0% | 0hPa | 0V | 00:00:00 | 00:00:00 | 00:00:00 | |
| RDZBGO | 2026-09-01 00:16:12 | 41.97803 | 9.49256 | 94° | 33km/h | 18357m | 5.0m/s | 0°C | 0% | 0hPa | 0V | 00:00:00 | 00:00:00 | 00:00:00 | |
| RDZBGO | 2026-09-01 00:15:51 | 41.97780 | 9.49103 | 189° | 15km/h | 18241m | -0.7m/s | 0°C | 0% | 0hPa | 0V | 00:00:00 | 00:00:00 | 00:00:00 | |
| RDZBGO | 2026-09-01 00:15:30 | 41.97821 | 9.48861 | 71° | 60km/h | 18152m | 5.0m/s | 0°C | 0% | 0hPa | 0V | 00:00:00 | 00:00:00 | 00:00:00 | |
| RDZBGO | 2026-09-01 00:15:10 | 41.97829 | 9.48552 | 101° | 77km/h | 18071m | 0.4m/s | 0°C | 0% | 0hPa | 0V | 00:00:00 | 00:00:00 | 00:00:00 | |
| RDZBGO | 2026-09-01 00:14:49 | 41.97853 | 9.48224 | 68° | 44km/h | 17980m | 0.0m/s | 0°C | 0% | 0hPa | 0V | 00:00:00 | 00:00:00 | 00:00:00 | |
| RDZBGO | 2026-09-01 00:14:28 | 41.97919 | 9.47889 | 98° | 49km/h | 17890m | 2.0m/s | 0°C | 0% | 0hPa | 0V | 00:00:00 | 00:00:00 | 00:00:00 | |
| RDZBGO | 2026-09-01 00:14:08 | 41.97982 | 9.47525 | 126° | 40km/h | 17808m | 6.2m/s | 0°C | 0% | 0hPa | 0V | 00:00:00 | 00:00:00 | 00:00:00 | |
| RDZBGO | 2026-09-01 00:13:46 | 41.97993 | 9.47080 | 68° | 49km/h | 17712m | 1.9m/s | 0°C | 0% | 0hPa | 0V | 00:00:00 | 00:00:00 | 00:00:00 | |
| RDZBGO | 2026-09-01 00:13:21 | 41.97949 | 9.46595 | 59° | 46km/h | 17603m | 0.7m/s | 0°C | 0% | 0hPa | 0V | 00:00:00 | 00:00:00 | 00:00:00 | |
| RDZBGO | 2026-09-01 00:13:00 | 41.97882 | 9.46240 | 97° | 44km/h | 17514m | 2.7m/s | 0°C | 0% | 0hPa | 0V | 00:00:00 | 00:00:00 | 00:00:00 | |
| RDZBGO | 2026-09-01 00:12:40 | 41.97822 | 9.45996 | 8° | 26km/h | 17425m | 0.4m/s | 0°C | 0% | 0hPa | 0V | 00:00:00 | 00:00:00 | 00:00:00 | |
| RDZBGO | 2026-09-01 00:12:19 | 41.97823 | 9.45829 | 114° | 47km/h | 17327m | 8.0m/s | 0°C | 0% | 0hPa | 0V | 00:00:00 | 00:00:00 | 00:00:00 | |
| RDZBGO | 2026-09-01 00:11:59 | 41.97845 | 9.45651 | 69° | 24km/h | 17245m | 7.4m/s | 0°C | 0% | 0hPa | 0V | 00:00:00 | 00:00:00 | 00:00:00 | |
| RDZBGO | 2026-09-01 00:11:38 | 41.97870 | 9.45453 | 98° | 49km/h | 17154m | 5.9m/s | 0°C | 0% | 0hPa | 0V | 00:00:00 | 00:00:00 | 00:00:00 | |
| RDZBGO | 2026-09-01 00:11:17 | 41.97929 | 9.45194 | 74° | 27km/h | 17061m | 6.9m/s | 0°C | 0% | 0hPa | 0V | 00:00:00 | 00:00:00 | 00:00:00 | |
| RDZBGO | 2026-09-01 00:10:56 | 41.97993 | 9.44845 | 144° | 53km/h | 16959m | 7.2m/s | 0°C | 0% | 0hPa | 0V | 00:00:00 | 00:00:00 | 00:00:00 | |
| RDZBGO | 2026-09-01 00:10:35 | 41.98070 | 9.44430 | 118° | 71km/h | 16852m | 6.8m/s | 0°C | 0% | 0hPa | 0V | 00:00:00 | 00:00:00 | 00:00:00 | |
| RDZBGO | 2026-09-01 00:10:14 | 41.98110 | 9.43983 | 108° | 82km/h | 16744m | 3.6m/s | 0°C | 0% | 0hPa | 0V | 00:00:00 | 00:00:00 | 00:00:00 | |
| RDZBGO | 2026-09-01 00:09:54 | 41.98107 | 9.43575 | 65° | 51km/h | 16644m | 2.5m/s | 0°C | 0% | 0hPa | 0V | 00:00:00 | 00:00:00 | 00:00:00 | |
| RDZBGO | 2026-09-01 00:09:33 | 41.98059 | 9.43162 | 101° | 58km/h | 16543m | 0.7m/s | 0°C | 0% | 0hPa | 0V | 00:00:00 | 00:00:00 | 00:00:00 | |
| RDZBGO | 2026-09-01 00:09:11 | 41.98025 | 9.42819 | 110° | 49km/h | 16445m | 2.8m/s | 0°C | 0% | 0hPa | 0V | 00:00:00 | 00:00:00 | 00:00:00 | |
| RDZBGO | 2026-09-01 00:08:51 | 41.97994 | 9.42545 | 108° | 16km/h | 16363m | 4.7m/s | 0°C | 0% | 0hPa | 0V | 00:00:00 | 00:00:00 | 00:00:00 | |
| RDZBGO | 2026-09-01 00:08:11 | 41.97951 | 9.41898 | 62° | 42km/h | 16212m | 4.3m/s | 0°C | 0% | 0hPa | 0V | 00:00:00 | 00:00:00 | 00:00:00 | |
| RDZBGO | 2026-09-01 00:07:50 | 41.97937 | 9.41481 | 113° | 49km/h | 16131m | 2.2m/s | 0°C | 0% | 0hPa | 0V | 00:00:00 | 00:00:00 | 00:00:00 | |
| RDZBGO | 2026-09-01 00:07:29 | 41.97921 | 9.41039 | 80° | 88km/h | 16058m | 1.0m/s | 0°C | 0% | 0hPa | 0V | 00:00:00 | 00:00:00 | 00:00:00 | |
| RDZBGO | 2026-09-01 00:07:08 | 41.97889 | 9.40617 | 75° | 53km/h | 15968m | 1.3m/s | 0°C | 0% | 0hPa | 0V | 00:00:00 | 00:00:00 | 00:00:00 | |
| RDZBGO | 2026-09-01 00:06:47 | 41.97864 | 9.40216 | 97° | 58km/h | 15863m | 1.5m/s | 0°C | 0% | 0hPa | 0V | 00:00:00 | 00:00:00 | 00:00:00 | |
| RDZBGO | 2026-09-01 00:06:26 | 41.97777 | 9.39828 | 73° | 46km/h | 15747m | 10.1m/s | 0°C | 0% | 0hPa | 0V | 00:00:00 | 00:00:00 | 00:00:00 | |
| RDZBGO | 2026-09-01 00:06:08 | 41.97716 | 9.39503 | 92° | 47km/h | 15635m | 6.2m/s | 0°C | 0% | 0hPa | 0V | 00:00:00 | 00:00:00 | 00:00:00 | |
| RDZBGO | 2026-09-01 00:05:47 | 41.97699 | 9.39134 | 89° | 66km/h | 15512m | 4.7m/s | 0°C | 0% | 0hPa | 0V | 00:00:00 | 00:00:00 | 00:00:00 | |
| RDZBGO | 2026-09-01 00:05:24 | 41.97692 | 9.38733 | 87° | 66km/h | 15389m | 7.5m/s | 0°C | 0% | 0hPa | 0V | 00:00:00 | 00:00:00 | 00:00:00 | |
| RDZBGO | 2026-09-01 00:05:05 | 41.97664 | 9.38329 | 73° | 73km/h | 15267m | 3.9m/s | 0°C | 0% | 0hPa | 0V | 00:00:00 | 00:00:00 | 00:00:00 | |
| RDZBGO | 2026-09-01 00:04:44 | 41.97631 | 9.37902 | 91° | 57km/h | 15144m | 4.6m/s | 0°C | 0% | 0hPa | 0V | 00:00:00 | 00:00:00 | 00:00:00 | |
| RDZBGO | 2026-09-01 00:04:23 | 41.97582 | 9.37464 | 83° | 62km/h | 15024m | 4.9m/s | 0°C | 0% | 0hPa | 0V | 00:00:00 | 00:00:00 | 00:00:00 | |
| RDZBGO | 2026-09-01 00:03:47 | 41.97388 | 9.36571 | 75° | 49km/h | 14774m | 7.7m/s | 0°C | 0% | 0hPa | 0V | 00:00:00 | 00:00:00 | 00:00:00 | |
| RDZBGO | 2026-09-01 00:03:36 | 41.97260 | 9.36152 | 68° | 62km/h | 14651m | 2.6m/s | 0°C | 0% | 0hPa | 0V | 00:00:00 | 00:00:00 | 00:00:00 | |
| RDZBGO | 2026-09-01 00:03:22 | 41.97096 | 9.35728 | 60° | 71km/h | 14527m | 6.9m/s | 0°C | 0% | 0hPa | 0V | 00:00:00 | 00:00:00 | 00:00:00 | |
| RDZBGO | 2026-09-01 00:02:57 | 41.96979 | 9.35299 | 73° | 75km/h | 14409m | 5.3m/s | 0°C | 0% | 0hPa | 0V | 00:00:00 | 00:00:00 | 00:00:00 | |
| RDZBGO | 2026-09-01 00:02:25 | 41.96865 | 9.34786 | 63° | 84km/h | 14294m | 7.7m/s | 0°C | 0% | 0hPa | 0V | 00:00:00 | 00:00:00 | 00:00:00 | |
| RDZBGO | 2026-09-01 00:01:56 | 41.96635 | 9.33799 | 79° | 82km/h | 14092m | 3.0m/s | 0°C | 0% | 0hPa | 0V | 00:00:00 | 00:00:00 | 00:00:00 | |
| RDZBGO | 2026-09-01 00:01:26 | 41.96487 | 9.33248 | 65° | 60km/h | 13997m | 4.2m/s | 0°C | 0% | 0hPa | 0V | 00:00:00 | 00:00:00 | 00:00:00 | |
| RDZBGO | 2026-09-01 00:00:40 | 41.96199 | 9.32202 | 64° | 78km/h | 13802m | 3.7m/s | 0°C | 0% | 0hPa | 0V | 00:00:00 | 00:00:00 | 00:00:00 | |
| RDZBGO | 2026-09-01 00:00:23 | 41.96062 | 9.31678 | 75° | 89km/h | 13696m | 1.6m/s | 0°C | 0% | 0hPa | 0V | 00:00:00 | 00:00:00 | 00:00:00 | |
| RDZBGO | 2026-08-31 23:59:54 | 41.95919 | 9.31064 | 67° | 84km/h | 13584m | 1.5m/s | 0°C | 0% | 0hPa | 0V | 00:00:00 | 00:00:00 | 00:00:00 | |
| RDZBGO | 2026-08-31 23:59:34 | 41.95809 | 9.30498 | 72° | 95km/h | 13490m | 2.6m/s | 0°C | 0% | 0hPa | 0V | 00:00:00 | 00:00:00 | 00:00:00 | |
| RDZBGO | 2026-08-31 23:59:13 | 41.95718 | 9.29888 | 75° | 113km/h | 13389m | 3.1m/s | 0°C | 0% | 0hPa | 0V | 00:00:00 | 00:00:00 | 00:00:00 | |
| RDZBGO | 2026-08-31 23:58:53 | 41.95623 | 9.29297 | 81° | 97km/h | 13295m | 3.4m/s | 0°C | 0% | 0hPa | 0V | 00:00:00 | 00:00:00 | 00:00:00 | |
| RDZBGO | 2026-08-31 23:58:33 | 41.95511 | 9.28687 | 76° | 88km/h | 13194m | 5.3m/s | 0°C | 0% | 0hPa | 0V | 00:00:00 | 00:00:00 | 00:00:00 | |
| RDZBGO | 2026-08-31 23:58:11 | 41.95379 | 9.28024 | 90° | 86km/h | 13073m | 6.4m/s | 0°C | 0% | 0hPa | 0V | 00:00:00 | 00:00:00 | 00:00:00 | |
| RDZBGO | 2026-08-31 23:57:50 | 41.95268 | 9.27358 | 87° | 95km/h | 12959m | 4.7m/s | 0°C | 0% | 0hPa | 0V | 00:00:00 | 00:00:00 | 00:00:00 | |
| RDZBGO | 2026-08-31 23:57:29 | 41.95136 | 9.26692 | 73° | 95km/h | 12834m | 5.0m/s | 0°C | 0% | 0hPa | 0V | 00:00:00 | 00:00:00 | 00:00:00 | |
| RDZBGO | 2026-08-31 23:57:09 | 41.94998 | 9.26057 | 73° | 104km/h | 12721m | 5.7m/s | 0°C | 0% | 0hPa | 0V | 00:00:00 | 00:00:00 | 00:00:00 | |
| RDZBGO | 2026-08-31 23:56:49 | 41.94827 | 9.25418 | 84° | 102km/h | 12602m | 2.5m/s | 0°C | 0% | 0hPa | 0V | 00:00:00 | 00:00:00 | 00:00:00 | |
| RDZBGO | 2026-08-31 23:56:28 | 41.94657 | 9.24763 | 73° | 89km/h | 12481m | 4.9m/s | 0°C | 0% | 0hPa | 0V | 00:00:00 | 00:00:00 | 00:00:00 | |
| RDZBGO | 2026-08-31 23:56:07 | 41.94491 | 9.24114 | 77° | 86km/h | 12364m | 7.1m/s | 0°C | 0% | 0hPa | 0V | 00:00:00 | 00:00:00 | 00:00:00 | |
| RDZBGO | 2026-08-31 23:55:47 | 41.94315 | 9.23491 | 71° | 104km/h | 12252m | 5.9m/s | 0°C | 0% | 0hPa | 0V | 00:00:00 | 00:00:00 | 00:00:00 | |
| RDZBGO | 2026-08-31 23:55:26 | 41.94118 | 9.22874 | 76° | 88km/h | 12126m | 7.0m/s | 0°C | 0% | 0hPa | 0V | 00:00:00 | 00:00:00 | 00:00:00 | |
| RDZBGO | 2026-08-31 23:55:05 | 41.93901 | 9.22240 | 56° | 104km/h | 12030m | 1.6m/s | 0°C | 0% | 0hPa | 0V | 00:00:00 | 00:00:00 | 00:00:00 | |
| RDZBGO | 2026-08-31 23:54:45 | 41.93680 | 9.21653 | 79° | 97km/h | 11942m | 4.2m/s | 0°C | 0% | 0hPa | 0V | 00:00:00 | 00:00:00 | 00:00:00 | |
| RDZBGO | 2026-08-31 23:54:25 | 41.93456 | 9.21069 | 73° | 100km/h | 11866m | 4.4m/s | 0°C | 0% | 0hPa | 0V | 00:00:00 | 00:00:00 | 00:00:00 | |
| RDZBGO | 2026-08-31 23:54:04 | 41.93206 | 9.20470 | 51° | 97km/h | 11786m | 2.8m/s | 0°C | 0% | 0hPa | 0V | 00:00:00 | 00:00:00 | 00:00:00 | |
| RDZBGO | 2026-08-31 23:53:44 | 41.92969 | 9.19914 | 68° | 75km/h | 11710m | 1.2m/s | 0°C | 0% | 0hPa | 0V | 00:00:00 | 00:00:00 | 00:00:00 | |
| RDZBGO | 2026-08-31 23:53:23 | 41.92716 | 9.19316 | 69° | 91km/h | 11633m | 2.7m/s | 0°C | 0% | 0hPa | 0V | 00:00:00 | 00:00:00 | 00:00:00 | |
| RDZBGO | 2026-08-31 23:52:58 | 41.92417 | 9.18608 | 55° | 110km/h | 11544m | 1.7m/s | 0°C | 0% | 0hPa | 0V | 00:00:00 | 00:00:00 | 00:00:00 | |
| RDZBGO | 2026-08-31 23:52:16 | 41.91958 | 9.17401 | 74° | 69km/h | 11397m | 2.7m/s | 0°C | 0% | 0hPa | 0V | 00:00:00 | 00:00:00 | 00:00:00 | |
| RDZBGO | 2026-08-31 23:51:56 | 41.91741 | 9.16809 | 74° | 115km/h | 11334m | 1.9m/s | 0°C | 0% | 0hPa | 0V | 00:00:00 | 00:00:00 | 00:00:00 | |
| RDZBGO | 2026-08-31 23:51:33 | 41.91485 | 9.16125 | 57° | 113km/h | 11247m | 3.3m/s | 0°C | 0% | 0hPa | 0V | 00:00:00 | 00:00:00 | 00:00:00 | |
| RDZBGO | 2026-08-31 23:51:13 | 41.91262 | 9.15516 | 66° | 95km/h | 11161m | 7.3m/s | 0°C | 0% | 0hPa | 0V | 00:00:00 | 00:00:00 | 00:00:00 | |
| RDZBGO | 2026-08-31 23:50:52 | 41.91058 | 9.14892 | 55° | 95km/h | 11064m | 2.2m/s | 0°C | 0% | 0hPa | 0V | 00:00:00 | 00:00:00 | 00:00:00 | |
| RDZBGO | 2026-08-31 23:50:37 | 41.90864 | 9.14301 | 61° | 84km/h | 10978m | 3.1m/s | 0°C | 0% | 0hPa | 0V | 00:00:00 | 00:00:00 | 00:00:00 | |
| RDZBGO | 2026-08-31 23:50:09 | 41.90681 | 9.13698 | 69° | 99km/h | 10875m | 1.9m/s | 0°C | 0% | 0hPa | 0V | 00:00:00 | 00:00:00 | 00:00:00 | |
| RDZBGO | 2026-08-31 23:49:49 | 41.90543 | 9.13130 | 77° | 86km/h | 10791m | 4.9m/s | 0°C | 0% | 0hPa | 0V | 00:00:00 | 00:00:00 | 00:00:00 | |
| RDZBGO | 2026-08-31 23:49:28 | 41.90383 | 9.12525 | 82° | 77km/h | 10697m | 4.9m/s | 0°C | 0% | 0hPa | 0V | 00:00:00 | 00:00:00 | 00:00:00 | |
| RDZBGO | 2026-08-31 23:49:08 | 41.90240 | 9.11956 | 85° | 80km/h | 10605m | 1.2m/s | 0°C | 0% | 0hPa | 0V | 00:00:00 | 00:00:00 | 00:00:00 | |
| RDZBGO | 2026-08-31 23:48:44 | 41.90099 | 9.11286 | 77° | 99km/h | 10517m | 1.5m/s | 0°C | 0% | 0hPa | 0V | 00:00:00 | 00:00:00 | 00:00:00 | |
| RDZBGO | 2026-08-31 23:48:11 | 41.89955 | 9.10348 | 89° | 95km/h | 10359m | 1.2m/s | 0°C | 0% | 0hPa | 0V | 00:00:00 | 00:00:00 | 00:00:00 | |
| RDZBGO | 2026-08-31 23:47:33 | 41.89799 | 9.09289 | 80° | 73km/h | 10209m | 2.3m/s | 0°C | 0% | 0hPa | 0V | 00:00:00 | 00:00:00 | 00:00:00 | |
| RDZBGO | 2026-08-31 23:46:44 | 41.89628 | 9.07849 | 87° | 97km/h | 9990m | 6.0m/s | 0°C | 0% | 0hPa | 0V | 00:00:00 | 00:00:00 | 00:00:00 | |
| RDZBGO | 2026-08-31 23:46:24 | 41.89567 | 9.07253 | 74° | 97km/h | 9890m | 2.1m/s | 0°C | 0% | 0hPa | 0V | 00:00:00 | 00:00:00 | 00:00:00 | |
| RDZBGO | 2026-08-31 23:46:03 | 41.89491 | 9.06632 | 79° | 99km/h | 9782m | 5.5m/s | 0°C | 0% | 0hPa | 0V | 00:00:00 | 00:00:00 | 00:00:00 | |
| RDZBGO | 2026-08-31 23:45:42 | 41.89432 | 9.06025 | 83° | 88km/h | 9672m | 2.7m/s | 0°C | 0% | 0hPa | 0V | 00:00:00 | 00:00:00 | 00:00:00 | |
| RDZBGO | 2026-08-31 23:45:22 | 41.89384 | 9.05435 | 97° | 89km/h | 9577m | 4.4m/s | 0°C | 0% | 0hPa | 0V | 00:00:00 | 00:00:00 | 00:00:00 | |
| RDZBGO | 2026-08-31 23:45:01 | 41.89355 | 9.04813 | 99° | 71km/h | 9481m | 2.7m/s | 0°C | 0% | 0hPa | 0V | 00:00:00 | 00:00:00 | 00:00:00 | |
| RDZBGO | 2026-08-31 23:44:41 | 41.89318 | 9.04219 | 81° | 86km/h | 9386m | 6.0m/s | 0°C | 0% | 0hPa | 0V | 00:00:00 | 00:00:00 | 00:00:00 | |
| RDZBGO | 2026-08-31 23:44:20 | 41.89281 | 9.03617 | 73° | 73km/h | 9281m | 6.7m/s | 0°C | 0% | 0hPa | 0V | 00:00:00 | 00:00:00 | 00:00:00 | |
| RDZBGO | 2026-08-31 23:43:59 | 41.89223 | 9.03047 | 71° | 71km/h | 9173m | 3.7m/s | 0°C | 0% | 0hPa | 0V | 00:00:00 | 00:00:00 | 00:00:00 | |
| RDZBGO | 2026-08-31 23:43:38 | 41.89167 | 9.02539 | 77° | 89km/h | 9064m | 4.2m/s | 0°C | 0% | 0hPa | 0V | 00:00:00 | 00:00:00 | 00:00:00 | |
| RDZBGO | 2026-08-31 23:43:17 | 41.89124 | 9.02014 | 83° | 75km/h | 8962m | 3.8m/s | 0°C | 0% | 0hPa | 0V | 00:00:00 | 00:00:00 | 00:00:00 | |
| RDZBGO | 2026-08-31 23:42:57 | 41.89100 | 9.01526 | 83° | 89km/h | 8868m | 4.0m/s | 0°C | 0% | 0hPa | 0V | 00:00:00 | 00:00:00 | 00:00:00 | |
| RDZBGO | 2026-08-31 23:42:35 | 41.89077 | 9.01010 | 84° | 49km/h | 8751m | 1.3m/s | 0°C | 0% | 0hPa | 0V | 00:00:00 | 00:00:00 | 00:00:00 | |
| RDZBGO | 2026-08-31 23:42:14 | 41.89069 | 9.00539 | 78° | 60km/h | 8649m | 6.1m/s | 0°C | 0% | 0hPa | 0V | 00:00:00 | 00:00:00 | 00:00:00 | |
| RDZBGO | 2026-08-31 23:41:53 | 41.89062 | 9.00072 | 97° | 60km/h | 8540m | 5.3m/s | 0°C | 0% | 0hPa | 0V | 00:00:00 | 00:00:00 | 00:00:00 | |
| RDZBGO | 2026-08-31 23:41:32 | 41.89066 | 8.99609 | 86° | 58km/h | 8437m | 5.1m/s | 0°C | 0% | 0hPa | 0V | 00:00:00 | 00:00:00 | 00:00:00 | |
| RDZBGO | 2026-08-31 23:41:12 | 41.89068 | 8.99178 | 92° | 73km/h | 8330m | 5.9m/s | 0°C | 0% | 0hPa | 0V | 00:00:00 | 00:00:00 | 00:00:00 | |
| RDZBGO | 2026-08-31 23:40:51 | 41.89075 | 8.98734 | 85° | 73km/h | 8238m | 5.5m/s | 0°C | 0% | 0hPa | 0V | 00:00:00 | 00:00:00 | 00:00:00 | |
| RDZBGO | 2026-08-31 23:40:31 | 41.89052 | 8.98310 | 92° | 80km/h | 8148m | 3.5m/s | 0°C | 0% | 0hPa | 0V | 00:00:00 | 00:00:00 | 00:00:00 | |
| RDZBGO | 2026-08-31 23:40:11 | 41.89045 | 8.97879 | 96° | 42km/h | 8053m | 0.8m/s | 0°C | 0% | 0hPa | 0V | 00:00:00 | 00:00:00 | 00:00:00 | |
| RDZBGO | 2026-08-31 23:39:50 | 41.89030 | 8.97408 | 104° | 47km/h | 7951m | 4.0m/s | 0°C | 0% | 0hPa | 0V | 00:00:00 | 00:00:00 | 00:00:00 | |
| RDZBGO | 2026-08-31 23:39:29 | 41.89009 | 8.96963 | 71° | 73km/h | 7857m | 4.7m/s | 0°C | 0% | 0hPa | 0V | 00:00:00 | 00:00:00 | 00:00:00 | |
| RDZBGO | 2026-08-31 23:39:08 | 41.88983 | 8.96521 | 89° | 80km/h | 7761m | 5.2m/s | 0°C | 0% | 0hPa | 0V | 00:00:00 | 00:00:00 | 00:00:00 | |
| RDZBGO | 2026-08-31 23:38:47 | 41.88963 | 8.96068 | 100° | 68km/h | 7654m | 5.7m/s | 0°C | 0% | 0hPa | 0V | 00:00:00 | 00:00:00 | 00:00:00 | |
| RDZBGO | 2026-08-31 23:38:26 | 41.88959 | 8.95623 | 85° | 60km/h | 7541m | 5.3m/s | 0°C | 0% | 0hPa | 0V | 00:00:00 | 00:00:00 | 00:00:00 | |
| RDZBGO | 2026-08-31 23:38:05 | 41.88968 | 8.95173 | 101° | 64km/h | 7440m | 5.2m/s | 0°C | 0% | 0hPa | 0V | 00:00:00 | 00:00:00 | 00:00:00 | |
| RDZBGO | 2026-08-31 23:37:45 | 41.88982 | 8.94780 | 85° | 60km/h | 7350m | 6.6m/s | 0°C | 0% | 0hPa | 0V | 00:00:00 | 00:00:00 | 00:00:00 | |
| RDZBGO | 2026-08-31 23:37:24 | 41.88997 | 8.94363 | 98° | 86km/h | 7239m | 2.1m/s | 0°C | 0% | 0hPa | 0V | 00:00:00 | 00:00:00 | 00:00:00 | |
| RDZBGO | 2026-08-31 23:37:02 | 41.89033 | 8.93906 | 101° | 46km/h | 7115m | 2.9m/s | 0°C | 0% | 0hPa | 0V | 00:00:00 | 00:00:00 | 00:00:00 | |
| RDZBGO | 2026-08-31 23:36:28 | 41.89097 | 8.93227 | 84° | 53km/h | 6924m | 4.7m/s | 0°C | 0% | 0hPa | 0V | 00:00:00 | 00:00:00 | 00:00:00 | |
| RDZBGO | 2026-08-31 23:36:08 | 41.89116 | 8.92788 | 99° | 53km/h | 6812m | 6.0m/s | 0°C | 0% | 0hPa | 0V | 00:00:00 | 00:00:00 | 00:00:00 |